Time;durP1;ratioP1;P1;durP2;ratioP2;P2;SDS_P1;SDS_P2;PMS_P1;PMS_P2;Temp;Humidity;BMP_temperature;BMP_pressure;BME280_temperature;BME280_humidity;BME280_pressure;Samples;Min_cycle;Max_cycle;Signal;HPM_P1;HPM_P2
2020/12/18 00:00:36;;;;;;;;;;;8.00;80.10;;;;;;5076907;28;19912;-86
2020/12/18 00:03:02;;;;;;;;;;;8.00;80.10;;;;;;5077215;28;20254;-86
2020/12/18 00:05:32;;;;;;;;;;;8.00;80.10;;;;;;5076776;28;19965;-86
2020/12/18 00:07:58;;;;;;;;;;;7.90;80.00;;;;;;5095180;28;19916;-86
2020/12/18 00:10:26;;;;;;;;;;;7.90;80.10;;;;;;5093268;28;19928;-86
2020/12/18 00:12:52;;;;;;;;;;;7.90;80.10;;;;;;5093708;28;19920;-86
2020/12/18 00:15:17;;;;;;;;;;;7.90;80.10;;;;;;5111082;28;19935;-86
2020/12/18 00:17:43;;;;;;;;;;;7.90;80.10;;;;;;5110402;28;19912;-86
2020/12/18 00:20:08;;;;;;;;;;;7.90;80.20;;;;;;5093261;28;19913;-86
2020/12/18 00:22:34;;;;;;;;;;;7.80;80.20;;;;;;5093408;28;20361;-86
2020/12/18 00:24:59;;;;;;;;;;;7.80;80.20;;;;;;5093669;28;19916;-86
2020/12/18 00:27:25;;;;;;;;;;;7.80;80.20;;;;;;5076433;28;19916;-86
2020/12/18 00:29:50;;;;;;;;;;;7.80;80.20;;;;;;5059881;28;19965;-86
2020/12/18 00:32:16;;;;;;;;;;;7.80;80.20;;;;;;5110395;28;20389;-86
2020/12/18 00:34:41;;;;;;;;;;;7.70;80.20;;;;;;5076376;28;19951;-86
2020/12/18 00:37:07;;;;;;;;;;;7.70;80.20;;;;;;5094552;28;20266;-86
2020/12/18 00:39:32;;;;;;;;;;;7.70;80.20;;;;;;5093184;28;19912;-86
2020/12/18 00:41:58;;;;;;;;;;;7.70;80.30;;;;;;5093765;28;19912;-86
2020/12/18 00:44:23;;;;;;;;;;;7.70;80.40;;;;;;5072730;28;19934;-86
2020/12/18 00:46:49;;;;;;;;;;;7.60;80.30;;;;;;5072799;28;19912;-86
2020/12/18 00:49:14;;;;;;;;;;;7.70;80.40;;;;;;5056207;28;19916;-86
2020/12/18 00:51:40;;;;;;;;;;;7.60;80.30;;;;;;5072445;28;19916;-86
2020/12/18 00:54:06;;;;;;;;;;;7.60;80.30;;;;;;5089428;28;20010;-86
2020/12/18 00:56:32;;;;;;;;;;;7.60;80.40;;;;;;5055959;28;20015;-84
2020/12/18 00:58:57;;;;;;;;;;;7.60;80.30;;;;;;5072559;28;20074;-86
2020/12/18 01:01:23;;;;;;;;;;;7.60;80.40;;;;;;5089446;28;19916;-86
2020/12/18 01:03:48;;;;;;;;;;;7.60;80.40;;;;;;5056121;28;19920;-86
2020/12/18 01:06:14;;;;;;;;;;;7.60;80.40;;;;;;5055980;28;19948;-86
2020/12/18 01:08:40;;;;;;;;;;;7.60;80.40;;;;;;5072205;28;19916;-86
2020/12/18 01:11:06;;;;;;;;;;;7.60;80.40;;;;;;5074192;28;20310;-87
2020/12/18 01:13:31;;;;;;;;;;;7.60;80.40;;;;;;5091109;28;19912;-86
2020/12/18 01:15:57;;;;;;;;;;;7.60;80.40;;;;;;5092778;28;19970;-86
2020/12/18 01:18:26;;;;;;;;;;;7.60;80.30;;;;;;5109000;28;19965;-86
2020/12/18 01:20:52;;;;;;;;;;;7.60;80.40;;;;;;5093769;28;19923;-86
2020/12/18 01:23:18;;;;;;;;;;;7.60;80.30;;;;;;5109523;28;20002;-86
2020/12/18 01:25:44;;;;;;;;;;;7.50;80.30;;;;;;5109039;28;19915;-86
2020/12/18 01:28:10;;;;;;;;;;;7.50;80.30;;;;;;5109333;28;19912;-86
2020/12/18 01:30:36;;;;;;;;;;;7.50;80.50;;;;;;5109296;28;19908;-86
2020/12/18 01:33:01;;;;;;;;;;;7.50;80.60;;;;;;5092188;28;20289;-86
2020/12/18 01:35:27;;;;;;;;;;;7.50;80.70;;;;;;5093593;28;19915;-86
2020/12/18 01:37:52;;;;;;;;;;;7.50;80.70;;;;;;5058407;28;20370;-86
2020/12/18 01:40:18;;;;;;;;;;;7.50;80.60;;;;;;5058502;28;19922;-86
2020/12/18 01:42:43;;;;;;;;;;;7.50;80.60;;;;;;5091643;28;19916;-86
2020/12/18 01:45:09;;;;;;;;;;;7.50;80.60;;;;;;5092986;28;19916;-86
2020/12/18 01:47:34;;;;;;;;;;;7.50;80.70;;;;;;5071277;28;20002;-86
2020/12/18 01:50:01;;;;;;;;;;;7.50;80.70;;;;;;5071734;28;20235;-86
2020/12/18 01:52:28;;;;;;;;;;;7.50;80.70;;;;;;5054665;28;19913;-86
2020/12/18 01:55:02;;;;;;;;;;;7.50;80.70;;;;;;5072765;28;19923;-86
2020/12/18 01:57:28;;;;;;;;;;;7.50;80.70;;;;;;5054828;28;19920;-86
2020/12/18 01:59:53;;;;;;;;;;;7.50;80.70;;;;;;5088273;28;19962;-86
2020/12/18 02:02:19;;;;;;;;;;;7.50;80.70;;;;;;5071404;28;20293;-86
2020/12/18 02:04:47;;;;;;;;;;;7.50;80.70;;;;;;5087891;28;19908;-86
2020/12/18 02:07:16;;;;;;;;;;;7.50;80.70;;;;;;5087463;28;19930;-86
2020/12/18 02:09:43;;;;;;;;;;;7.50;80.70;;;;;;5087544;28;19928;-86
2020/12/18 02:12:08;;;;;;;;;;;7.50;80.80;;;;;;5072676;28;19912;-86
2020/12/18 02:14:34;;;;;;;;;;;7.50;80.70;;;;;;5073083;28;19924;-86
2020/12/18 02:16:59;;;;;;;;;;;7.50;80.70;;;;;;5108184;28;20238;-86
2020/12/18 02:19:28;;;;;;;;;;;7.50;80.80;;;;;;5057690;28;19916;-86
2020/12/18 02:21:53;;;;;;;;;;;7.50;80.80;;;;;;5092590;28;19919;-86
2020/12/18 02:24:26;;;;;;;;;;;7.50;80.70;;;;;;5108371;28;19908;-86
2020/12/18 02:26:54;;;;;;;;;;;7.50;80.80;;;;;;5074374;28;19915;-86
2020/12/18 02:29:20;;;;;;;;;;;7.50;80.80;;;;;;5083300;28;19912;-86
2020/12/18 02:31:49;;;;;;;;;;;7.50;80.90;;;;;;5070787;28;20487;-86
2020/12/18 02:34:27;;;;;;;;;;;7.50;81.00;;;;;;5088082;28;20333;-86
2020/12/18 02:36:53;;;;;;;;;;;7.50;80.90;;;;;;5072109;28;19909;-86
2020/12/18 02:39:18;;;;;;;;;;;7.40;81.00;;;;;;5054208;28;20010;-86
2020/12/18 02:41:44;;;;;;;;;;;7.50;81.00;;;;;;5087554;28;20406;-86
2020/12/18 02:44:10;;;;;;;;;;;7.40;81.10;;;;;;5070921;28;19916;-86
2020/12/18 02:46:35;;;;;;;;;;;7.50;81.10;;;;;;5064088;28;20292;-86
2020/12/18 02:49:01;;;;;;;;;;;7.50;81.10;;;;;;5091129;28;19912;-85
2020/12/18 02:51:27;;;;;;;;;;;7.50;81.20;;;;;;5092127;28;19954;-86
2020/12/18 02:53:52;;;;;;;;;;;7.50;81.30;;;;;;5057702;28;20308;-86
2020/12/18 02:56:25;;;;;;;;;;;7.50;81.30;;;;;;5074098;28;19916;-86
2020/12/18 02:58:50;;;;;;;;;;;7.50;81.30;;;;;;5107441;28;19922;-86
2020/12/18 03:01:16;;;;;;;;;;;7.50;81.50;;;;;;5107988;28;19908;-86
2020/12/18 03:03:41;;;;;;;;;;;7.50;81.90;;;;;;5091734;28;19909;-86
2020/12/18 03:06:07;;;;;;;;;;;7.50;81.80;;;;;;5073980;28;19931;-86
2020/12/18 03:08:32;;;;;;;;;;;7.50;81.80;;;;;;5097559;22;19968;-86
2020/12/18 03:10:58;;;;;;;;;;;7.50;81.60;;;;;;5050624;28;20129;-86
2020/12/18 03:13:23;;;;;;;;;;;7.50;81.60;;;;;;5051771;28;20041;-86
2020/12/18 03:15:49;;;;;;;;;;;7.50;81.50;;;;;;5016659;28;19917;-86
2020/12/18 03:18:14;;;;;;;;;;;7.50;81.50;;;;;;5020141;28;19946;-86
2020/12/18 03:20:40;;;;;;;;;;;7.60;81.50;;;;;;5020843;28;20415;-86
2020/12/18 03:23:05;;;;;;;;;;;7.50;81.40;;;;;;5037783;28;19908;-86
2020/12/18 03:25:31;;;;;;;;;;;7.60;81.40;;;;;;5070422;28;19948;-86
2020/12/18 03:27:56;;;;;;;;;;;7.60;81.40;;;;;;5021084;28;20282;-86
2020/12/18 03:30:22;;;;;;;;;;;7.60;81.40;;;;;;5037625;28;19958;-86
2020/12/18 03:32:47;;;;;;;;;;;7.60;81.40;;;;;;5037145;28;19916;-86
2020/12/18 03:35:13;;;;;;;;;;;7.60;81.40;;;;;;5070840;28;19917;-86
2020/12/18 03:37:39;;;;;;;;;;;7.60;81.40;;;;;;5036909;28;20004;-86
2020/12/18 03:40:04;;;;;;;;;;;7.60;81.30;;;;;;5021094;28;19921;-86
2020/12/18 03:42:30;;;;;;;;;;;7.60;81.30;;;;;;5020537;28;19920;-86
2020/12/18 03:44:56;;;;;;;;;;;7.50;81.30;;;;;;5020489;28;19919;-86
2020/12/18 03:47:21;;;;;;;;;;;7.60;81.30;;;;;;5037267;28;20003;-86
2020/12/18 03:49:47;;;;;;;;;;;7.50;81.20;;;;;;5036758;28;20003;-86
2020/12/18 03:52:12;;;;;;;;;;;7.60;81.30;;;;;;5020668;28;20282;-86
2020/12/18 03:54:37;;;;;;;;;;;7.50;81.10;;;;;;5036922;28;19913;-86
2020/12/18 03:57:03;;;;;;;;;;;7.50;81.10;;;;;;5020391;28;20063;-86
2020/12/18 03:59:28;;;;;;;;;;;7.50;81.10;;;;;;5020554;28;19924;-86
2020/12/18 04:01:54;;;;;;;;;;;7.60;81.20;;;;;;5019880;28;19920;-86
2020/12/18 04:04:22;;;;;;;;;;;7.50;81.10;;;;;;5037032;28;19983;-85
2020/12/18 04:06:48;;;;;;;;;;;7.60;81.10;;;;;;5036648;28;19909;-85
2020/12/18 04:09:13;;;;;;;;;;;7.60;81.20;;;;;;5036778;28;20351;-85
2020/12/18 04:11:41;;;;;;;;;;;7.60;81.10;;;;;;5036713;28;19978;-85
2020/12/18 04:14:07;;;;;;;;;;;7.50;81.10;;;;;;5020791;28;19913;-85
2020/12/18 04:16:33;;;;;;;;;;;7.50;81.10;;;;;;5036098;28;19920;-83
2020/12/18 04:18:59;;;;;;;;;;;7.50;81.10;;;;;;5020208;28;19921;-84
2020/12/18 04:21:24;;;;;;;;;;;7.50;81.10;;;;;;5037270;28;19920;-85
2020/12/18 04:23:49;;;;;;;;;;;7.50;81.10;;;;;;5036198;28;20440;-85
2020/12/18 04:26:15;;;;;;;;;;;7.50;81.10;;;;;;5019870;28;19912;-85
2020/12/18 04:28:40;;;;;;;;;;;7.50;81.10;;;;;;5035387;28;20429;-84
2020/12/18 04:31:06;;;;;;;;;;;7.50;81.10;;;;;;5019333;28;19917;-84
2020/12/18 04:33:31;;;;;;;;;;;7.50;81.10;;;;;;5036295;28;19912;-85
2020/12/18 04:35:57;;;;;;;;;;;7.40;81.10;;;;;;5036444;28;19959;-85
2020/12/18 04:38:22;;;;;;;;;;;7.40;81.10;;;;;;5019658;28;19979;-85
2020/12/18 04:40:48;;;;;;;;;;;7.40;81.10;;;;;;5019569;28;19913;-85
2020/12/18 04:43:13;;;;;;;;;;;7.40;81.10;;;;;;5053508;28;19921;-85
2020/12/18 04:45:39;;;;;;;;;;;7.40;81.10;;;;;;5035568;28;19920;-85
2020/12/18 04:48:10;;;;;;;;;;;7.40;81.10;;;;;;5069238;28;19915;-85
2020/12/18 04:50:36;;;;;;;;;;;7.30;81.10;;;;;;5035300;28;19913;-85
2020/12/18 04:53:02;;;;;;;;;;;7.40;81.10;;;;;;5035975;28;20295;-85
2020/12/18 04:55:28;;;;;;;;;;;7.30;81.10;;;;;;5035699;28;20377;-86
2020/12/18 04:57:54;;;;;;;;;;;7.30;81.10;;;;;;5035345;28;19913;-86
2020/12/18 05:00:21;;;;;;;;;;;7.30;81.10;;;;;;5035827;28;19995;-86
2020/12/18 05:02:49;;;;;;;;;;;7.30;81.10;;;;;;5033022;28;20294;-85
2020/12/18 05:05:14;;;;;;;;;;;7.30;81.10;;;;;;5024678;28;20362;-85
2020/12/18 05:07:40;;;;;;;;;;;7.30;81.10;;;;;;5060161;28;20389;-86
2020/12/18 05:10:06;;;;;;;;;;;7.30;81.10;;;;;;5035561;28;20024;-86
2020/12/18 05:12:32;;;;;;;;;;;7.30;81.10;;;;;;5035791;28;19958;-85
2020/12/18 05:14:58;;;;;;;;;;;7.20;81.10;;;;;;5019090;28;19924;-85
2020/12/18 05:17:25;;;;;;;;;;;7.20;81.10;;;;;;5019226;28;19921;-85
2020/12/18 05:19:51;;;;;;;;;;;7.20;81.20;;;;;;5052877;28;20007;-85
2020/12/18 05:22:21;;;;;;;;;;;7.20;81.30;;;;;;5036411;28;20408;-86
2020/12/18 05:24:47;;;;;;;;;;;7.20;81.30;;;;;;5054104;28;19909;-85
2020/12/18 05:27:13;;;;;;;;;;;7.20;81.30;;;;;;5030892;28;19927;-85
2020/12/18 05:29:38;;;;;;;;;;;7.20;81.50;;;;;;5053718;28;20257;-85
2020/12/18 05:32:04;;;;;;;;;;;7.20;81.50;;;;;;5036672;28;19913;-85
2020/12/18 05:34:29;;;;;;;;;;;7.20;81.50;;;;;;5019271;28;19913;-85
2020/12/18 05:36:55;;;;;;;;;;;7.20;81.40;;;;;;5048699;28;19963;-85
2020/12/18 05:39:21;;;;;;;;;;;7.20;81.50;;;;;;5052272;28;19916;-85
2020/12/18 05:42:00;;;;;;;;;;;7.20;81.50;;;;;;5032672;28;20366;-85
2020/12/18 05:44:26;;;;;;;;;;;7.20;81.50;;;;;;5034279;28;19919;-85
2020/12/18 05:46:52;;;;;;;;;;;7.20;81.50;;;;;;5034510;28;19924;-85
2020/12/18 05:49:26;;;;;;;;;;;7.10;81.50;;;;;;5035375;28;19999;-86
2020/12/18 05:51:52;;;;;;;;;;;7.10;81.50;;;;;;5034328;28;20307;-85
2020/12/18 05:54:18;;;;;;;;;;;7.20;81.50;;;;;;5035294;28;19939;-85
2020/12/18 05:56:46;;;;;;;;;;;7.10;81.60;;;;;;5034990;28;19962;-86
2020/12/18 05:59:13;;;;;;;;;;;7.10;81.70;;;;;;5035498;28;19913;-85
2020/12/18 06:01:39;;;;;;;;;;;7.10;81.70;;;;;;5068435;28;19916;-85
2020/12/18 06:04:25;;;;;;;;;;;7.10;81.70;;;;;;5041398;28;19931;-86
2020/12/18 06:06:52;;;;;;;;;;;7.10;81.90;;;;;;5034105;28;19912;-85
2020/12/18 06:09:26;;;;;;;;;;;7.10;81.80;;;;;;5035713;28;19920;-85
2020/12/18 06:11:52;;;;;;;;;;;7.10;81.80;;;;;;5052389;28;19915;-85
2020/12/18 06:14:18;;;;;;;;;;;7.10;81.80;;;;;;5035091;28;19958;-86
2020/12/18 06:16:45;;;;;;;;;;;7.10;81.70;;;;;;5034736;28;19909;-85
2020/12/18 06:19:12;;;;;;;;;;;7.10;81.90;;;;;;5052674;28;19917;-85
2020/12/18 06:21:38;;;;;;;;;;;7.10;81.90;;;;;;5018330;28;19913;-85
2020/12/18 06:24:04;;;;;;;;;;;7.10;82.00;;;;;;5034986;28;19917;-85
2020/12/18 06:26:30;;;;;;;;;;;7.10;82.00;;;;;;5052663;28;19917;-85
2020/12/18 06:29:01;;;;;;;;;;;7.10;82.00;;;;;;5033703;28;20427;-85
2020/12/18 06:31:27;;;;;;;;;;;7.10;82.00;;;;;;5034421;28;19909;-85
2020/12/18 06:33:54;;;;;;;;;;;7.10;82.00;;;;;;5034090;28;19913;-86
2020/12/18 06:36:39;;;;;;;;;;;7.10;82.00;;;;;;5034194;28;20281;-86
2020/12/18 06:39:19;;;;;;;;;;;7.10;82.00;;;;;;5034485;28;19940;-86
2020/12/18 06:41:44;;;;;;;;;;;7.10;82.00;;;;;;5034268;28;20334;-86
2020/12/18 06:44:29;;;;;;;;;;;7.10;81.90;;;;;;5033578;28;20123;-86
2020/12/18 06:47:13;;;;;;;;;;;7.10;81.90;;;;;;5032975;28;19913;-86
2020/12/18 06:50:08;;;;;;;;;;;7.10;81.90;;;;;;5052043;28;19970;-86
2020/12/18 06:52:57;;;;;;;;;;;7.10;81.90;;;;;;5051900;28;19956;-86
2020/12/18 06:55:26;;;;;;;;;;;7.10;81.90;;;;;;5037238;28;19909;-86
2020/12/18 06:58:10;;;;;;;;;;;7.10;81.90;;;;;;5036818;28;19912;-85
2020/12/18 07:00:36;;;;;;;;;;;7.10;81.80;;;;;;5037228;28;20031;-86
2020/12/18 07:03:02;;;;;;;;;;;7.10;81.80;;;;;;5030802;28;19958;-84
2020/12/18 07:05:27;;;;;;;;;;;7.10;82.10;;;;;;5034253;28;20011;-84
2020/12/18 07:07:56;;;;;;;;;;;7.10;82.20;;;;;;5024384;28;20328;-84
2020/12/18 07:10:24;;;;;;;;;;;7.10;82.10;;;;;;5034036;28;19912;-84
2020/12/18 07:12:50;;;;;;;;;;;7.10;82.10;;;;;;5034636;28;20270;-84
2020/12/18 07:15:19;;;;;;;;;;;7.10;82.10;;;;;;5036863;28;19917;-84
2020/12/18 07:17:48;;;;;;;;;;;7.10;82.10;;;;;;5052453;28;19917;-84
2020/12/18 07:20:14;;;;;;;;;;;7.10;82.20;;;;;;5036449;28;20011;-84
2020/12/18 07:22:40;;;;;;;;;;;7.10;82.30;;;;;;5018104;28;19916;-84
2020/12/18 07:25:12;;;;;;;;;;;7.10;82.50;;;;;;5034776;28;19917;-84
2020/12/18 07:27:38;;;;;;;;;;;7.10;82.50;;;;;;5038088;28;19920;-84
2020/12/18 07:30:13;;;;;;;;;;;7.10;82.60;;;;;;5068939;28;19913;-84
2020/12/18 07:32:38;;;;;;;;;;;7.10;82.60;;;;;;5070284;28;20011;-84
2020/12/18 07:35:05;;;;;;;;;;;7.20;82.60;;;;;;5053564;28;20488;-84
2020/12/18 07:37:32;;;;;;;;;;;7.20;82.50;;;;;;5059097;28;20024;-84
2020/12/18 07:39:57;;;;;;;;;;;7.20;82.50;;;;;;5017008;28;19917;-84
2020/12/18 07:42:23;;;;;;;;;;;7.20;82.50;;;;;;5000976;28;19986;-84
2020/12/18 07:45:01;;;;;;;;;;;7.20;82.50;;;;;;5016973;28;19917;-84
2020/12/18 07:47:26;;;;;;;;;;;7.20;82.50;;;;;;5028897;28;19920;-84
2020/12/18 07:49:53;;;;;;;;;;;7.20;82.40;;;;;;5033711;28;19916;-85
2020/12/18 07:52:24;;;;;;;;;;;7.20;82.40;;;;;;5034314;28;19935;-83
2020/12/18 07:54:57;;;;;;;;;;;7.20;82.40;;;;;;5036006;28;20046;-84
2020/12/18 07:57:31;;;;;;;;;;;7.20;82.40;;;;;;5036318;28;19913;-85
2020/12/18 08:00:07;;;;;;;;;;;7.20;82.40;;;;;;5034969;28;19913;-83
2020/12/18 08:02:32;;;;;;;;;;;7.20;82.40;;;;;;5051612;28;19912;-84
2020/12/18 08:05:37;;;;;;;;;;;7.20;82.40;;;;;;5033454;28;20396;-84
2020/12/18 08:08:11;;;;;;;;;;;7.20;82.50;;;;;;5014642;28;19921;-84
2020/12/18 08:10:40;;;;;;;;;;;7.20;82.50;;;;;;5028368;28;19967;-84
2020/12/18 08:13:11;;;;;;;;;;;7.20;82.50;;;;;;5037039;28;20388;-84
2020/12/18 08:15:39;;;;;;;;;;;7.20;82.50;;;;;;5019898;28;20349;-84
2020/12/18 08:18:13;;;;;;;;;;;7.30;82.90;;;;;;5035798;28;19917;-84
2020/12/18 08:37:00;;;;;;;;;;;7.40;83.60;;;;;;5033970;28;20291;-87
2020/12/18 08:40:21;;;;;;;;;;;7.40;83.00;;;;;;5052966;28;19980;-86
2020/12/18 08:48:48;;;;;;;;;;;7.40;82.90;;;;;;4983553;28;19975;-84
2020/12/18 08:55:40;;;;;;;;;;;;;;;;;;;;;
2020/12/18 08:59:40;;;;;;;;;;;;;;;;;;;;;
2020/12/18 09:01:30;;;;;;;;;;;7.50;82.60;;;;;;4917292;29;20033;-84
2020/12/18 09:04:04;;;;;;;;;;;7.60;82.60;;;;;;4928335;29;20424;-84
2020/12/18 09:06:41;;;;;;;;;;;7.60;82.70;;;;;;4948786;28;20001;-83
2020/12/18 09:09:06;;;;;;;;;;;7.60;82.70;;;;;;5036999;23;19924;-85
2020/12/18 09:11:32;;;;;;;;;;;7.60;82.60;;;;;;5075614;28;19986;-86
2020/12/18 09:13:58;;;;;;;;;;;7.60;82.60;;;;;;5090306;28;19947;-86
2020/12/18 09:16:24;;;;;;;;;;;7.60;82.60;;;;;;5075141;28;19943;-86
2020/12/18 09:18:51;;;;;;;;;;;7.60;82.50;;;;;;5075272;28;20362;-86
2020/12/18 09:21:18;;;;;;;;;;;7.70;82.60;;;;;;5092136;28;20554;-86
2020/12/18 09:23:47;;;;;;;;;;;7.70;82.60;;;;;;5091665;28;19962;-86
2020/12/18 09:26:22;;;;;;;;;;;7.70;82.60;;;;;;5093722;28;19908;-85
2020/12/18 09:28:47;;;;;;;;;;;7.80;82.60;;;;;;5093382;28;19919;-86
2020/12/18 09:31:13;;;;;;;;;;;7.80;82.50;;;;;;5076774;28;19912;-86
2020/12/18 09:33:38;;;;;;;;;;;7.80;82.50;;;;;;5076975;28;20345;-86
2020/12/18 09:36:08;;;;;;;;;;;7.80;82.50;;;;;;5075966;28;19916;-87
2020/12/18 09:38:36;;;;;;;;;;;7.90;82.60;;;;;;5092976;28;19949;-86
2020/12/18 09:41:02;;;;;;;;;;;7.90;82.60;;;;;;5091622;28;19912;-85
2020/12/18 09:43:28;;;;;;;;;;;7.90;82.70;;;;;;5093048;28;19929;-85
2020/12/18 09:45:54;;;;;;;;;;;8.00;82.90;;;;;;5080359;28;19956;-84
2020/12/18 09:48:20;;;;;;;;;;;8.00;83.10;;;;;;5079396;28;20007;-84
2020/12/18 09:50:48;;;;;;;;;;;8.00;83.20;;;;;;5092755;28;19944;-87
2020/12/18 09:56:44;;;;;;;;;;;8.10;83.40;;;;;;5088875;28;20412;-87
2020/12/18 10:02:22;;;;;;;;;;;8.20;83.50;;;;;;5080276;28;19977;-87
2020/12/18 10:07:52;;;;;;;;;;;8.30;83.60;;;;;;5091955;28;19944;-86
2020/12/18 10:10:45;;;;;;;;;;;8.30;83.60;;;;;;5070862;28;19946;-86
2020/12/18 10:16:14;;;;;;;;;;;8.40;83.80;;;;;;5086941;28;19938;-87
2020/12/18 10:18:49;;;;;;;;;;;8.50;83.70;;;;;;5075938;28;19921;-86
2020/12/18 10:21:14;;;;;;;;;;;8.50;83.60;;;;;;5090828;28;19916;-86
2020/12/18 10:23:40;;;;;;;;;;;8.60;83.80;;;;;;5090841;28;19912;-86
2020/12/18 10:26:05;;;;;;;;;;;8.60;83.80;;;;;;5071463;28;20354;-88
2020/12/18 10:28:31;;;;;;;;;;;8.60;83.80;;;;;;5055337;28;20312;-86
2020/12/18 10:31:06;;;;;;;;;;;8.80;83.80;;;;;;5057184;28;19913;-86
2020/12/18 10:39:37;;;;;;;;;;;9.00;83.70;;;;;;5093683;28;20411;-86
2020/12/18 10:48:47;;;;;;;;;;;;;;;;;;;;;
2020/12/18 10:51:43;;;;;;;;;;;9.40;83.40;;;;;;5069045;28;19959;-86
2020/12/18 10:54:09;;;;;;;;;;;9.50;83.60;;;;;;5056038;28;19908;-86
2020/12/18 10:56:56;;;;;;;;;;;9.50;83.60;;;;;;5091766;28;19916;-86
2020/12/18 10:59:41;;;;;;;;;;;9.60;83.50;;;;;;5072119;28;19916;-86
2020/12/18 11:02:09;;;;;;;;;;;9.70;83.60;;;;;;5071562;28;19939;-86
2020/12/18 11:07:44;;;;;;;;;;;9.90;83.60;;;;;;5090657;28;19919;-86
2020/12/18 11:10:24;;;;;;;;;;;10.00;83.50;;;;;;5078921;28;20007;-86
2020/12/18 11:12:53;;;;;;;;;;;10.10;83.30;;;;;;5071872;28;19912;-86
2020/12/18 11:18:34;;;;;;;;;;;10.20;83.30;;;;;;5073500;28;19969;-86
2020/12/18 11:21:18;;;;;;;;;;;10.30;83.10;;;;;;5070359;28;19908;-86
2020/12/18 11:24:11;;;;;;;;;;;10.40;83.30;;;;;;5071749;28;19912;-86
2020/12/18 11:32:38;;;;;;;;;;;10.60;83.00;;;;;;5091501;28;19994;-85
2020/12/18 11:38:25;;;;;;;;;;;10.70;82.90;;;;;;5091504;28;19942;-85
2020/12/18 11:40:53;;;;;;;;;;;10.80;82.70;;;;;;5077771;28;20021;-87
2020/12/18 11:46:27;;;;;;;;;;;10.90;82.50;;;;;;5094922;28;19967;-86
2020/12/18 11:51:58;;;;;;;;;;;11.00;82.20;;;;;;5103613;28;19914;-87
2020/12/18 11:54:23;;;;;;;;;;;11.00;82.10;;;;;;5080785;28;19927;-88
2020/12/18 11:56:55;;;;;;;;;;;11.10;82.00;;;;;;5093286;28;19912;-85
2020/12/18 11:59:21;;;;;;;;;;;11.10;81.90;;;;;;5094099;28;19919;-85
2020/12/18 12:01:54;;;;;;;;;;;11.20;81.80;;;;;;5076846;28;20011;-87
2020/12/18 12:04:25;;;;;;;;;;;11.20;81.60;;;;;;5077333;28;19923;-85
2020/12/18 12:07:00;;;;;;;;;;;11.20;81.50;;;;;;5076659;28;20015;-88
2020/12/18 12:09:38;;;;;;;;;;;11.30;81.30;;;;;;5073550;28;19932;-88
2020/12/18 12:12:03;;;;;;;;;;;11.30;81.10;;;;;;5094223;28;20268;-88
2020/12/18 12:14:35;;;;;;;;;;;11.30;81.70;;;;;;5089887;28;19989;-87
2020/12/18 12:17:20;;;;;;;;;;;11.40;81.00;;;;;;5054986;28;19924;-87
2020/12/18 12:19:45;;;;;;;;;;;11.40;80.60;;;;;;5079058;28;19963;-87
2020/12/18 12:22:11;;;;;;;;;;;11.40;80.60;;;;;;5076508;28;19955;-87
2020/12/18 12:24:42;;;;;;;;;;;11.40;80.10;;;;;;5072852;28;19947;-87
2020/12/18 12:27:11;;;;;;;;;;;11.40;80.10;;;;;;5059011;28;20011;-87
2020/12/18 12:29:38;;;;;;;;;;;11.50;80.20;;;;;;5084907;28;19944;-87
2020/12/18 12:32:07;;;;;;;;;;;11.50;80.10;;;;;;5073092;28;19935;-87
2020/12/18 12:34:33;;;;;;;;;;;11.50;80.10;;;;;;5087375;28;19913;-87
2020/12/18 12:37:08;;;;;;;;;;;11.50;79.90;;;;;;5073537;28;19916;-87
2020/12/18 12:39:35;;;;;;;;;;;11.60;79.70;;;;;;5084166;28;19924;-86
2020/12/18 12:42:01;;;;;;;;;;;11.60;79.60;;;;;;5076256;28;19937;-87
2020/12/18 12:44:28;;;;;;;;;;;11.60;79.60;;;;;;5089799;28;20448;-87
2020/12/18 12:46:53;;;;;;;;;;;11.60;79.30;;;;;;5090633;28;19912;-87
2020/12/18 12:49:19;;;;;;;;;;;11.70;79.40;;;;;;5066529;28;20426;-87
2020/12/18 12:51:44;;;;;;;;;;;11.70;78.90;;;;;;5089113;28;19917;-87
2020/12/18 12:54:10;;;;;;;;;;;11.70;78.90;;;;;;5065142;28;19920;-87
2020/12/18 12:56:35;;;;;;;;;;;11.70;78.50;;;;;;5066999;28;19958;-87
2020/12/18 12:59:01;;;;;;;;;;;11.70;78.30;;;;;;5072507;28;19939;-87
2020/12/18 13:01:31;;;;;;;;;;;11.70;79.00;;;;;;5086295;28;19967;-87
2020/12/18 13:04:03;;;;;;;;;;;11.70;78.30;;;;;;5075907;28;19969;-87
2020/12/18 13:06:28;;;;;;;;;;;11.80;78.40;;;;;;5089228;28;19923;-87
2020/12/18 13:08:54;;;;;;;;;;;11.80;78.40;;;;;;5058356;28;19920;-87
2020/12/18 13:11:25;;;;;;;;;;;11.80;78.30;;;;;;5092735;28;19927;-87
2020/12/18 13:13:54;;;;;;;;;;;11.80;78.30;;;;;;5092197;28;20369;-87
2020/12/18 13:16:22;;;;;;;;;;;11.90;78.20;;;;;;5075631;28;20362;-87
2020/12/18 13:18:48;;;;;;;;;;;11.90;78.10;;;;;;5072078;28;19942;-88
2020/12/18 13:21:14;;;;;;;;;;;11.90;78.10;;;;;;5089622;28;20292;-87
2020/12/18 13:23:40;;;;;;;;;;;11.90;78.00;;;;;;5068573;28;20391;-87
2020/12/18 13:26:06;;;;;;;;;;;11.90;77.70;;;;;;5055315;28;20022;-87
2020/12/18 13:28:32;;;;;;;;;;;12.00;77.80;;;;;;5086780;28;20448;-87
2020/12/18 13:30:58;;;;;;;;;;;12.00;77.80;;;;;;5075310;28;20030;-87
2020/12/18 13:33:23;;;;;;;;;;;12.00;77.70;;;;;;5091892;28;21246;-87
2020/12/18 13:35:49;;;;;;;;;;;12.00;77.50;;;;;;5109600;28;19923;-87
2020/12/18 13:38:14;;;;;;;;;;;12.00;77.60;;;;;;5070980;28;19927;-87
2020/12/18 13:40:40;;;;;;;;;;;12.10;77.50;;;;;;5086252;28;19912;-87
2020/12/18 13:43:05;;;;;;;;;;;12.10;77.60;;;;;;5092988;28;20370;-87
2020/12/18 13:45:32;;;;;;;;;;;12.10;77.50;;;;;;5074987;28;19961;-88
2020/12/18 13:47:57;;;;;;;;;;;12.10;77.30;;;;;;5092067;28;19967;-86
2020/12/18 13:50:26;;;;;;;;;;;12.20;77.10;;;;;;5085360;28;20003;-86
2020/12/18 13:52:52;;;;;;;;;;;12.20;77.20;;;;;;5084778;28;19940;-86
2020/12/18 13:55:18;;;;;;;;;;;12.20;77.20;;;;;;5071985;28;20439;-86
2020/12/18 13:57:44;;;;;;;;;;;12.20;77.20;;;;;;5090966;28;19926;-85
2020/12/18 14:00:09;;;;;;;;;;;12.20;77.00;;;;;;5090870;28;20400;-84
2020/12/18 14:02:35;;;;;;;;;;;12.20;77.00;;;;;;5090395;28;19916;-87
2020/12/18 14:05:00;;;;;;;;;;;12.30;77.10;;;;;;5087680;28;19916;-86
2020/12/18 14:10:29;;;;;;;;;;;12.30;76.80;;;;;;5075746;28;19935;-86
2020/12/18 14:12:59;;;;;;;;;;;12.30;76.20;;;;;;5070840;28;19912;-87
2020/12/18 14:15:24;;;;;;;;;;;12.30;76.10;;;;;;5068975;28;19950;-85
2020/12/18 14:17:50;;;;;;;;;;;12.30;76.10;;;;;;5075595;28;20490;-86
2020/12/18 14:20:15;;;;;;;;;;;12.30;76.00;;;;;;5090239;28;19918;-85
2020/12/18 14:22:41;;;;;;;;;;;12.30;76.00;;;;;;5076116;28;19920;-86
2020/12/18 14:25:06;;;;;;;;;;;12.30;75.70;;;;;;5069971;28;20254;-86
2020/12/18 14:27:32;;;;;;;;;;;12.30;75.30;;;;;;5090694;28;20217;-85
2020/12/18 14:29:58;;;;;;;;;;;12.30;75.30;;;;;;5060215;28;20000;-85
2020/12/18 14:32:23;;;;;;;;;;;12.30;75.20;;;;;;5054275;28;20485;-85
2020/12/18 14:34:49;;;;;;;;;;;12.30;75.30;;;;;;5074126;28;19916;-85
2020/12/18 14:37:16;;;;;;;;;;;12.30;75.30;;;;;;5091669;28;19926;-85
2020/12/18 14:39:42;;;;;;;;;;;12.30;75.10;;;;;;5074430;28;19917;-86
2020/12/18 14:42:08;;;;;;;;;;;12.30;75.00;;;;;;5088682;28;19916;-85
2020/12/18 14:44:34;;;;;;;;;;;12.20;74.50;;;;;;5070253;28;19920;-86
2020/12/18 14:47:00;;;;;;;;;;;12.30;74.90;;;;;;5065477;28;20066;-85
2020/12/18 14:49:25;;;;;;;;;;;12.30;74.90;;;;;;5090670;28;20297;-85
2020/12/18 14:52:08;;;;;;;;;;;12.20;74.70;;;;;;5090955;28;20003;-85
2020/12/18 14:54:36;;;;;;;;;;;12.20;74.80;;;;;;5087522;28;20137;-86
2020/12/18 14:57:02;;;;;;;;;;;12.20;74.40;;;;;;5089619;28;19927;-86
2020/12/18 14:59:27;;;;;;;;;;;12.20;74.50;;;;;;5090253;28;19927;-85
2020/12/18 15:01:53;;;;;;;;;;;12.20;74.30;;;;;;5086287;28;19920;-85
2020/12/18 15:04:19;;;;;;;;;;;12.20;74.00;;;;;;5089737;28;19927;-85
2020/12/18 15:06:46;;;;;;;;;;;12.10;74.00;;;;;;5087409;28;19909;-85
2020/12/18 15:09:11;;;;;;;;;;;12.10;73.80;;;;;;5090712;28;19916;-85
2020/12/18 15:11:37;;;;;;;;;;;12.10;74.00;;;;;;5086576;28;19951;-85
2020/12/18 15:14:02;;;;;;;;;;;12.10;73.70;;;;;;5085525;28;19957;-85
2020/12/18 15:16:28;;;;;;;;;;;12.00;74.00;;;;;;5093821;28;19951;-86
2020/12/18 15:18:53;;;;;;;;;;;12.00;74.00;;;;;;5077496;28;19916;-85
2020/12/18 15:21:19;;;;;;;;;;;12.00;73.90;;;;;;5092667;28;19912;-87
2020/12/18 15:23:44;;;;;;;;;;;12.00;74.20;;;;;;5089138;22;20021;-88
2020/12/18 15:26:13;;;;;;;;;;;12.00;74.40;;;;;;5017525;28;20420;-87
2020/12/18 15:28:38;;;;;;;;;;;11.90;74.50;;;;;;5017634;28;19923;-87
2020/12/18 15:31:04;;;;;;;;;;;11.90;74.60;;;;;;5031955;28;20024;-87
2020/12/18 15:33:29;;;;;;;;;;;11.90;74.80;;;;;;5032334;28;20333;-87
2020/12/18 15:35:55;;;;;;;;;;;11.90;74.70;;;;;;5034005;28;19913;-87
2020/12/18 15:38:20;;;;;;;;;;;11.90;74.70;;;;;;5035376;28;19945;-87
2020/12/18 15:40:46;;;;;;;;;;;11.90;74.70;;;;;;5035244;28;19980;-87
2020/12/18 15:43:11;;;;;;;;;;;11.80;74.70;;;;;;5017481;28;20366;-87
2020/12/18 15:45:37;;;;;;;;;;;11.80;74.40;;;;;;5016915;28;20089;-87
2020/12/18 15:48:02;;;;;;;;;;;11.80;74.50;;;;;;5017392;28;19928;-87
2020/12/18 15:50:28;;;;;;;;;;;11.70;74.70;;;;;;5033926;28;19913;-87